sensor_id;sensor_type;location;lat;lon;timestamp;P1;P2;P0
37290;PMS5003;23175;-33.706;151.094;2022-10-24T00:01:20;0;0;
37290;PMS5003;23175;-33.706;151.094;2022-10-24T00:03:50;0;0;
37290;PMS5003;23175;-33.706;151.094;2022-10-24T00:06:20;2;0;
37290;PMS5003;23175;-33.706;151.094;2022-10-24T00:08:50;0;0;
37290;PMS5003;23175;-33.706;151.094;2022-10-24T00:11:21;1;0;
37290;PMS5003;23175;-33.706;151.094;2022-10-24T00:13:53;0;0;
37290;PMS5003;23175;-33.706;151.094;2022-10-24T00:16:25;0;0;
37290;PMS5003;23175;-33.706;151.094;2022-10-24T00:18:55;0;0;
37290;PMS5003;23175;-33.706;151.094;2022-10-24T00:21:25;0;0;
37290;PMS5003;23175;-33.706;151.094;2022-10-24T00:23:55;0;0;
37290;PMS5003;23175;-33.706;151.094;2022-10-24T00:26:25;0;0;
37290;PMS5003;23175;-33.706;151.094;2022-10-24T00:28:56;0;0;
37290;PMS5003;23175;-33.706;151.094;2022-10-24T00:31:26;0;0;
37290;PMS5003;23175;-33.706;151.094;2022-10-24T00:33:56;0;0;
37290;PMS5003;23175;-33.706;151.094;2022-10-24T00:36:26;0;0;
37290;PMS5003;23175;-33.706;151.094;2022-10-24T00:38:56;0;0;
37290;PMS5003;23175;-33.706;151.094;2022-10-24T00:41:27;0;0;
37290;PMS5003;23175;-33.706;151.094;2022-10-24T00:44:17;0;0;
37290;PMS5003;23175;-33.706;151.094;2022-10-24T00:46:50;0;0;
37290;PMS5003;23175;-33.706;151.094;2022-10-24T00:49:24;0;0;
37290;PMS5003;23175;-33.706;151.094;2022-10-24T00:52:01;0;0;
37290;PMS5003;23175;-33.706;151.094;2022-10-24T00:54:35;0;0;
37290;PMS5003;23175;-33.706;151.094;2022-10-24T00:57:07;1;0;
37290;PMS5003;23175;-33.706;151.094;2022-10-24T00:59:42;0;0;
37290;PMS5003;23175;-33.706;151.094;2022-10-24T01:02:17;0;0;
37290;PMS5003;23175;-33.706;151.094;2022-10-24T01:04:47;0;0;
37290;PMS5003;23175;-33.706;151.094;2022-10-24T01:07:21;1;0;
37290;PMS5003;23175;-33.706;151.094;2022-10-24T01:10:06;0;0;
37290;PMS5003;23175;-33.706;151.094;2022-10-24T01:12:47;0;0;
37290;PMS5003;23175;-33.706;151.094;2022-10-24T01:15:30;1;0;
37290;PMS5003;23175;-33.706;151.094;2022-10-24T01:18:09;0;0;
37290;PMS5003;23175;-33.706;151.094;2022-10-24T01:20:49;0;0;
37290;PMS5003;23175;-33.706;151.094;2022-10-24T01:23:39;0;0;
37290;PMS5003;23175;-33.706;151.094;2022-10-24T01:26:33;1;0;
37290;PMS5003;23175;-33.706;151.094;2022-10-24T01:29:17;0;0;
37290;PMS5003;23175;-33.706;151.094;2022-10-24T01:31:50;0;0;
37290;PMS5003;23175;-33.706;151.094;2022-10-24T01:34:25;0;0;
37290;PMS5003;23175;-33.706;151.094;2022-10-24T01:36:58;0;0;
37290;PMS5003;23175;-33.706;151.094;2022-10-24T01:39:35;0;0;
37290;PMS5003;23175;-33.706;151.094;2022-10-24T01:42:07;0;0;
37290;PMS5003;23175;-33.706;151.094;2022-10-24T01:44:42;0;0;
37290;PMS5003;23175;-33.706;151.094;2022-10-24T01:47:17;0;0;
37290;PMS5003;23175;-33.706;151.094;2022-10-24T01:49:51;0;0;
37290;PMS5003;23175;-33.706;151.094;2022-10-24T01:52:26;0;0;
37290;PMS5003;23175;-33.706;151.094;2022-10-24T01:54:59;0;0;
37290;PMS5003;23175;-33.706;151.094;2022-10-24T01:57:31;0;0;
37290;PMS5003;23175;-33.706;151.094;2022-10-24T02:00:03;0;0;
37290;PMS5003;23175;-33.706;151.094;2022-10-24T02:02:36;0;0;
37290;PMS5003;23175;-33.706;151.094;2022-10-24T02:05:10;0;0;
37290;PMS5003;23175;-33.706;151.094;2022-10-24T02:07:46;0;0;
37290;PMS5003;23175;-33.706;151.094;2022-10-24T02:10:21;0;0;
37290;PMS5003;23175;-33.706;151.094;2022-10-24T02:12:56;0;0;
37290;PMS5003;23175;-33.706;151.094;2022-10-24T02:15:30;0;0;
37290;PMS5003;23175;-33.706;151.094;2022-10-24T02:18:05;0;0;
37290;PMS5003;23175;-33.706;151.094;2022-10-24T02:20:38;0;0;
37290;PMS5003;23175;-33.706;151.094;2022-10-24T02:23:16;0;0;
37290;PMS5003;23175;-33.706;151.094;2022-10-24T02:25:54;0;0;
37290;PMS5003;23175;-33.706;151.094;2022-10-24T02:28:29;0;0;
37290;PMS5003;23175;-33.706;151.094;2022-10-24T02:31:06;0;0;
37290;PMS5003;23175;-33.706;151.094;2022-10-24T02:33:40;0;0;
37290;PMS5003;23175;-33.706;151.094;2022-10-24T02:36:11;0;0;
37290;PMS5003;23175;-33.706;151.094;2022-10-24T02:38:46;0;0;
37290;PMS5003;23175;-33.706;151.094;2022-10-24T02:41:19;0;0;
37290;PMS5003;23175;-33.706;151.094;2022-10-24T02:43:53;0;0;
37290;PMS5003;23175;-33.706;151.094;2022-10-24T02:46:24;0;0;
37290;PMS5003;23175;-33.706;151.094;2022-10-24T02:48:56;0;0;
37290;PMS5003;23175;-33.706;151.094;2022-10-24T02:51:29;0;0;
37290;PMS5003;23175;-33.706;151.094;2022-10-24T02:54:03;0;0;
37290;PMS5003;23175;-33.706;151.094;2022-10-24T02:56:34;0;0;
37290;PMS5003;23175;-33.706;151.094;2022-10-24T02:59:08;0;0;
37290;PMS5003;23175;-33.706;151.094;2022-10-24T03:01:38;0;0;
37290;PMS5003;23175;-33.706;151.094;2022-10-24T03:04:08;0;0;
37290;PMS5003;23175;-33.706;151.094;2022-10-24T03:06:38;0;0;
37290;PMS5003;23175;-33.706;151.094;2022-10-24T03:09:08;0;0;
37290;PMS5003;23175;-33.706;151.094;2022-10-24T03:11:39;0;0;
37290;PMS5003;23175;-33.706;151.094;2022-10-24T03:14:09;0;0;
37290;PMS5003;23175;-33.706;151.094;2022-10-24T03:16:39;0;0;
37290;PMS5003;23175;-33.706;151.094;2022-10-24T03:19:09;0;0;
37290;PMS5003;23175;-33.706;151.094;2022-10-24T03:21:39;0;0;
37290;PMS5003;23175;-33.706;151.094;2022-10-24T03:24:09;0;0;
37290;PMS5003;23175;-33.706;151.094;2022-10-24T03:26:39;0;0;
37290;PMS5003;23175;-33.706;151.094;2022-10-24T03:29:09;0;0;
37290;PMS5003;23175;-33.706;151.094;2022-10-24T03:31:39;0;0;
37290;PMS5003;23175;-33.706;151.094;2022-10-24T03:34:09;0;0;
37290;PMS5003;23175;-33.706;151.094;2022-10-24T03:36:39;1;0;
37290;PMS5003;23175;-33.706;151.094;2022-10-24T03:39:09;0;0;
37290;PMS5003;23175;-33.706;151.094;2022-10-24T03:41:40;0;0;
37290;PMS5003;23175;-33.706;151.094;2022-10-24T03:44:10;4;0;
37290;PMS5003;23175;-33.706;151.094;2022-10-24T03:46:40;1;1;
37290;PMS5003;23175;-33.706;151.094;2022-10-24T03:49:10;0;0;
37290;PMS5003;23175;-33.706;151.094;2022-10-24T03:51:40;2;0;
37290;PMS5003;23175;-33.706;151.094;2022-10-24T03:54:11;0;0;
37290;PMS5003;23175;-33.706;151.094;2022-10-24T03:56:41;0;0;
37290;PMS5003;23175;-33.706;151.094;2022-10-24T03:59:12;0;0;
37290;PMS5003;23175;-33.706;151.094;2022-10-24T04:01:43;0;0;
37290;PMS5003;23175;-33.706;151.094;2022-10-24T04:04:13;0;0;
37290;PMS5003;23175;-33.706;151.094;2022-10-24T04:06:44;0;0;
37290;PMS5003;23175;-33.706;151.094;2022-10-24T04:09:14;0;0;
37290;PMS5003;23175;-33.706;151.094;2022-10-24T04:11:45;1;1;
37290;PMS5003;23175;-33.706;151.094;2022-10-24T04:14:15;1;1;
37290;PMS5003;23175;-33.706;151.094;2022-10-24T04:16:46;0;0;
37290;PMS5003;23175;-33.706;151.094;2022-10-24T04:19:16;1;1;
37290;PMS5003;23175;-33.706;151.094;2022-10-24T04:21:46;0;0;
37290;PMS5003;23175;-33.706;151.094;2022-10-24T04:24:16;0;0;
37290;PMS5003;23175;-33.706;151.094;2022-10-24T04:26:46;1;1;
37290;PMS5003;23175;-33.706;151.094;2022-10-24T04:29:16;2;1;
37290;PMS5003;23175;-33.706;151.094;2022-10-24T04:31:46;1;1;
37290;PMS5003;23175;-33.706;151.094;2022-10-24T04:34:17;0;0;
37290;PMS5003;23175;-33.706;151.094;2022-10-24T04:36:46;0;0;
37290;PMS5003;23175;-33.706;151.094;2022-10-24T04:39:16;1;1;
37290;PMS5003;23175;-33.706;151.094;2022-10-24T04:41:46;0;0;
37290;PMS5003;23175;-33.706;151.094;2022-10-24T04:44:17;0;0;
37290;PMS5003;23175;-33.706;151.094;2022-10-24T04:46:47;0;0;
37290;PMS5003;23175;-33.706;151.094;2022-10-24T04:49:17;0;0;
37290;PMS5003;23175;-33.706;151.094;2022-10-24T04:51:48;0;0;
37290;PMS5003;23175;-33.706;151.094;2022-10-24T04:54:18;0;0;
37290;PMS5003;23175;-33.706;151.094;2022-10-24T04:56:49;1;1;
37290;PMS5003;23175;-33.706;151.094;2022-10-24T04:59:18;0;0;
37290;PMS5003;23175;-33.706;151.094;2022-10-24T05:01:48;1;1;
37290;PMS5003;23175;-33.706;151.094;2022-10-24T05:04:18;0;0;
37290;PMS5003;23175;-33.706;151.094;2022-10-24T05:06:48;0;0;
37290;PMS5003;23175;-33.706;151.094;2022-10-24T05:09:18;0;0;
37290;PMS5003;23175;-33.706;151.094;2022-10-24T05:11:48;1;1;
37290;PMS5003;23175;-33.706;151.094;2022-10-24T05:14:20;2;2;
37290;PMS5003;23175;-33.706;151.094;2022-10-24T05:16:50;1;1;
37290;PMS5003;23175;-33.706;151.094;2022-10-24T05:19:20;1;1;
37290;PMS5003;23175;-33.706;151.094;2022-10-24T05:21:50;1;1;
37290;PMS5003;23175;-33.706;151.094;2022-10-24T05:24:20;0;0;
37290;PMS5003;23175;-33.706;151.094;2022-10-24T05:26:50;0;0;
37290;PMS5003;23175;-33.706;151.094;2022-10-24T05:29:20;0;0;
37290;PMS5003;23175;-33.706;151.094;2022-10-24T05:31:50;0;0;
37290;PMS5003;23175;-33.706;151.094;2022-10-24T05:34:20;1;1;
37290;PMS5003;23175;-33.706;151.094;2022-10-24T05:36:51;0;0;
37290;PMS5003;23175;-33.706;151.094;2022-10-24T05:39:21;1;1;
37290;PMS5003;23175;-33.706;151.094;2022-10-24T05:41:52;2;0;
37290;PMS5003;23175;-33.706;151.094;2022-10-24T05:44:22;4;3;
37290;PMS5003;23175;-33.706;151.094;2022-10-24T05:46:52;7;7;
37290;PMS5003;23175;-33.706;151.094;2022-10-24T05:49:21;10;10;
37290;PMS5003;23175;-33.706;151.094;2022-10-24T05:51:51;7;7;
37290;PMS5003;23175;-33.706;151.094;2022-10-24T05:54:22;11;8;
37290;PMS5003;23175;-33.706;151.094;2022-10-24T05:56:51;5;5;
37290;PMS5003;23175;-33.706;151.094;2022-10-24T05:59:21;9;9;
37290;PMS5003;23175;-33.706;151.094;2022-10-24T06:01:51;2;1;
37290;PMS5003;23175;-33.706;151.094;2022-10-24T06:04:21;2;2;
37290;PMS5003;23175;-33.706;151.094;2022-10-24T06:06:51;0;0;
37290;PMS5003;23175;-33.706;151.094;2022-10-24T06:09:21;1;1;
37290;PMS5003;23175;-33.706;151.094;2022-10-24T06:11:51;2;1;
37290;PMS5003;23175;-33.706;151.094;2022-10-24T06:14:22;1;1;
37290;PMS5003;23175;-33.706;151.094;2022-10-24T06:16:52;1;1;
37290;PMS5003;23175;-33.706;151.094;2022-10-24T06:19:22;2;2;
37290;PMS5003;23175;-33.706;151.094;2022-10-24T06:21:52;1;1;
37290;PMS5003;23175;-33.706;151.094;2022-10-24T06:24:22;3;3;
37290;PMS5003;23175;-33.706;151.094;2022-10-24T06:26:52;2;1;
37290;PMS5003;23175;-33.706;151.094;2022-10-24T06:29:22;1;1;
37290;PMS5003;23175;-33.706;151.094;2022-10-24T06:31:52;2;2;
37290;PMS5003;23175;-33.706;151.094;2022-10-24T06:34:22;1;1;
37290;PMS5003;23175;-33.706;151.094;2022-10-24T06:36:54;2;2;
37290;PMS5003;23175;-33.706;151.094;2022-10-24T06:39:24;2;2;
37290;PMS5003;23175;-33.706;151.094;2022-10-24T06:41:55;2;2;
37290;PMS5003;23175;-33.706;151.094;2022-10-24T06:44:25;1;1;
37290;PMS5003;23175;-33.706;151.094;2022-10-24T06:46:55;1;1;
37290;PMS5003;23175;-33.706;151.094;2022-10-24T06:49:25;4;2;
37290;PMS5003;23175;-33.706;151.094;2022-10-24T06:51:55;3;3;
37290;PMS5003;23175;-33.706;151.094;2022-10-24T06:54:26;3;0;
37290;PMS5003;23175;-33.706;151.094;2022-10-24T06:56:55;3;1;
37290;PMS5003;23175;-33.706;151.094;2022-10-24T06:59:26;4;3;
37290;PMS5003;23175;-33.706;151.094;2022-10-24T07:01:56;1;1;
37290;PMS5003;23175;-33.706;151.094;2022-10-24T07:04:26;1;1;
37290;PMS5003;23175;-33.706;151.094;2022-10-24T07:06:56;1;1;
37290;PMS5003;23175;-33.706;151.094;2022-10-24T07:09:26;2;2;
37290;PMS5003;23175;-33.706;151.094;2022-10-24T07:11:56;1;1;
37290;PMS5003;23175;-33.706;151.094;2022-10-24T07:14:26;1;1;
37290;PMS5003;23175;-33.706;151.094;2022-10-24T07:16:56;1;1;
37290;PMS5003;23175;-33.706;151.094;2022-10-24T07:19:26;4;3;
37290;PMS5003;23175;-33.706;151.094;2022-10-24T07:21:56;3;3;
37290;PMS5003;23175;-33.706;151.094;2022-10-24T07:24:26;2;2;
37290;PMS5003;23175;-33.706;151.094;2022-10-24T07:26:56;2;2;
37290;PMS5003;23175;-33.706;151.094;2022-10-24T07:29:26;1;1;
37290;PMS5003;23175;-33.706;151.094;2022-10-24T07:31:56;2;2;
37290;PMS5003;23175;-33.706;151.094;2022-10-24T07:34:26;2;2;
37290;PMS5003;23175;-33.706;151.094;2022-10-24T07:36:56;3;3;
37290;PMS5003;23175;-33.706;151.094;2022-10-24T07:39:26;4;4;
37290;PMS5003;23175;-33.706;151.094;2022-10-24T07:41:56;3;3;
37290;PMS5003;23175;-33.706;151.094;2022-10-24T07:44:26;3;3;
37290;PMS5003;23175;-33.706;151.094;2022-10-24T07:46:56;5;3;
37290;PMS5003;23175;-33.706;151.094;2022-10-24T07:49:26;4;2;
37290;PMS5003;23175;-33.706;151.094;2022-10-24T07:51:57;5;5;
37290;PMS5003;23175;-33.706;151.094;2022-10-24T07:54:27;6;4;
37290;PMS5003;23175;-33.706;151.094;2022-10-24T07:56:57;4;4;
37290;PMS5003;23175;-33.706;151.094;2022-10-24T07:59:28;2;2;
37290;PMS5003;23175;-33.706;151.094;2022-10-24T08:01:58;5;5;
37290;PMS5003;23175;-33.706;151.094;2022-10-24T08:04:28;3;3;
37290;PMS5003;23175;-33.706;151.094;2022-10-24T08:06:58;4;4;
37290;PMS5003;23175;-33.706;151.094;2022-10-24T08:09:28;7;3;
37290;PMS5003;23175;-33.706;151.094;2022-10-24T08:11:58;4;4;
37290;PMS5003;23175;-33.706;151.094;2022-10-24T08:14:28;4;2;
37290;PMS5003;23175;-33.706;151.094;2022-10-24T08:16:58;5;4;
37290;PMS5003;23175;-33.706;151.094;2022-10-24T08:19:29;4;3;
37290;PMS5003;23175;-33.706;151.094;2022-10-24T08:22:00;6;6;
37290;PMS5003;23175;-33.706;151.094;2022-10-24T08:24:30;3;2;
37290;PMS5003;23175;-33.706;151.094;2022-10-24T08:27:02;4;4;
37290;PMS5003;23175;-33.706;151.094;2022-10-24T08:29:32;3;2;
37290;PMS5003;23175;-33.706;151.094;2022-10-24T08:32:02;6;3;
37290;PMS5003;23175;-33.706;151.094;2022-10-24T08:34:32;4;1;
37290;PMS5003;23175;-33.706;151.094;2022-10-24T08:37:05;10;4;
37290;PMS5003;23175;-33.706;151.094;2022-10-24T08:39:36;4;2;
37290;PMS5003;23175;-33.706;151.094;2022-10-24T08:42:08;6;1;
37290;PMS5003;23175;-33.706;151.094;2022-10-24T08:44:42;4;2;
37290;PMS5003;23175;-33.706;151.094;2022-10-24T08:47:15;2;2;
37290;PMS5003;23175;-33.706;151.094;2022-10-24T08:49:53;4;2;
37290;PMS5003;23175;-33.706;151.094;2022-10-24T08:52:29;9;3;
37290;PMS5003;23175;-33.706;151.094;2022-10-24T08:55:04;2;2;
37290;PMS5003;23175;-33.706;151.094;2022-10-24T08:57:38;8;8;
37290;PMS5003;23175;-33.706;151.094;2022-10-24T09:00:14;4;2;
37290;PMS5003;23175;-33.706;151.094;2022-10-24T09:02:48;0;0;
37290;PMS5003;23175;-33.706;151.094;2022-10-24T09:05:25;2;1;
37290;PMS5003;23175;-33.706;151.094;2022-10-24T09:08:00;5;3;
37290;PMS5003;23175;-33.706;151.094;2022-10-24T09:10:40;3;3;
37290;PMS5003;23175;-33.706;151.094;2022-10-24T09:13:16;7;2;
37290;PMS5003;23175;-33.706;151.094;2022-10-24T09:15:45;4;2;
37290;PMS5003;23175;-33.706;151.094;2022-10-24T09:18:18;2;2;
37290;PMS5003;23175;-33.706;151.094;2022-10-24T09:20:53;5;2;
37290;PMS5003;23175;-33.706;151.094;2022-10-24T09:23:23;3;3;
37290;PMS5003;23175;-33.706;151.094;2022-10-24T09:25:55;5;2;
37290;PMS5003;23175;-33.706;151.094;2022-10-24T09:28:26;2;1;
37290;PMS5003;23175;-33.706;151.094;2022-10-24T09:30:57;2;2;
37290;PMS5003;23175;-33.706;151.094;2022-10-24T09:33:30;1;1;
37290;PMS5003;23175;-33.706;151.094;2022-10-24T09:36:03;6;1;
37290;PMS5003;23175;-33.706;151.094;2022-10-24T09:38:38;4;1;
37290;PMS5003;23175;-33.706;151.094;2022-10-24T09:41:15;2;0;
37290;PMS5003;23175;-33.706;151.094;2022-10-24T09:43:50;1;1;
37290;PMS5003;23175;-33.706;151.094;2022-10-24T09:46:22;4;1;
37290;PMS5003;23175;-33.706;151.094;2022-10-24T09:48:56;2;0;
37290;PMS5003;23175;-33.706;151.094;2022-10-24T09:59:15;1;1;
37290;PMS5003;23175;-33.706;151.094;2022-10-24T10:02:21;3;1;
37290;PMS5003;23175;-33.706;151.094;2022-10-24T10:05:17;5;1;
37290;PMS5003;23175;-33.706;151.094;2022-10-24T10:07:48;1;1;
37290;PMS5003;23175;-33.706;151.094;2022-10-24T10:10:24;2;0;
37290;PMS5003;23175;-33.706;151.094;2022-10-24T10:13:02;4;1;
37290;PMS5003;23175;-33.706;151.094;2022-10-24T10:15:44;1;1;
37290;PMS5003;23175;-33.706;151.094;2022-10-24T10:18:32;1;1;
37290;PMS5003;23175;-33.706;151.094;2022-10-24T10:21:11;0;0;
37290;PMS5003;23175;-33.706;151.094;2022-10-24T10:23:43;3;1;
37290;PMS5003;23175;-33.706;151.094;2022-10-24T10:26:17;3;1;
37290;PMS5003;23175;-33.706;151.094;2022-10-24T10:28:52;0;0;
37290;PMS5003;23175;-33.706;151.094;2022-10-24T10:31:26;3;3;
37290;PMS5003;23175;-33.706;151.094;2022-10-24T10:34:30;4;2;
37290;PMS5003;23175;-33.706;151.094;2022-10-24T10:37:12;3;3;
37290;PMS5003;23175;-33.706;151.094;2022-10-24T10:39:59;7;3;
37290;PMS5003;23175;-33.706;151.094;2022-10-24T10:42:45;5;1;
37290;PMS5003;23175;-33.706;151.094;2022-10-24T10:45:29;2;2;
37290;PMS5003;23175;-33.706;151.094;2022-10-24T10:48:06;1;1;
37290;PMS5003;23175;-33.706;151.094;2022-10-24T10:50:48;1;1;
37290;PMS5003;23175;-33.706;151.094;2022-10-24T10:53:27;2;2;
37290;PMS5003;23175;-33.706;151.094;2022-10-24T10:56:07;1;1;
37290;PMS5003;23175;-33.706;151.094;2022-10-24T10:58:50;2;1;
37290;PMS5003;23175;-33.706;151.094;2022-10-24T11:01:32;0;0;
37290;PMS5003;23175;-33.706;151.094;2022-10-24T11:04:17;6;2;
37290;PMS5003;23175;-33.706;151.094;2022-10-24T11:06:57;2;2;
37290;PMS5003;23175;-33.706;151.094;2022-10-24T11:09:36;7;2;
37290;PMS5003;23175;-33.706;151.094;2022-10-24T11:12:12;3;2;
37290;PMS5003;23175;-33.706;151.094;2022-10-24T11:14:46;4;2;
37290;PMS5003;23175;-33.706;151.094;2022-10-24T11:17:21;4;2;
37290;PMS5003;23175;-33.706;151.094;2022-10-24T11:19:58;2;2;
37290;PMS5003;23175;-33.706;151.094;2022-10-24T11:22:35;2;2;
37290;PMS5003;23175;-33.706;151.094;2022-10-24T11:25:17;2;2;
37290;PMS5003;23175;-33.706;151.094;2022-10-24T11:27:52;1;1;
37290;PMS5003;23175;-33.706;151.094;2022-10-24T11:30:33;2;2;
37290;PMS5003;23175;-33.706;151.094;2022-10-24T11:33:14;1;1;
37290;PMS5003;23175;-33.706;151.094;2022-10-24T11:36:22;5;2;
37290;PMS5003;23175;-33.706;151.094;2022-10-24T11:39:01;2;2;
37290;PMS5003;23175;-33.706;151.094;2022-10-24T11:41:40;2;2;
37290;PMS5003;23175;-33.706;151.094;2022-10-24T11:44:19;4;2;
37290;PMS5003;23175;-33.706;151.094;2022-10-24T11:47:29;5;3;
37290;PMS5003;23175;-33.706;151.094;2022-10-24T11:50:11;3;3;
37290;PMS5003;23175;-33.706;151.094;2022-10-24T11:52:49;4;2;
37290;PMS5003;23175;-33.706;151.094;2022-10-24T11:55:24;3;3;
37290;PMS5003;23175;-33.706;151.094;2022-10-24T11:57:58;4;1;
37290;PMS5003;23175;-33.706;151.094;2022-10-24T12:00:31;3;1;
37290;PMS5003;23175;-33.706;151.094;2022-10-24T12:03:17;3;3;
37290;PMS5003;23175;-33.706;151.094;2022-10-24T12:06:20;3;3;
37290;PMS5003;23175;-33.706;151.094;2022-10-24T12:09:05;3;3;
37290;PMS5003;23175;-33.706;151.094;2022-10-24T12:11:55;2;2;
37290;PMS5003;23175;-33.706;151.094;2022-10-24T12:14:41;5;3;
37290;PMS5003;23175;-33.706;151.094;2022-10-24T12:17:23;4;2;
37290;PMS5003;23175;-33.706;151.094;2022-10-24T12:21:05;2;2;
37290;PMS5003;23175;-33.706;151.094;2022-10-24T12:23:39;3;2;
37290;PMS5003;23175;-33.706;151.094;2022-10-24T12:26:16;4;2;
37290;PMS5003;23175;-33.706;151.094;2022-10-24T12:28:53;2;2;
37290;PMS5003;23175;-33.706;151.094;2022-10-24T12:31:26;3;1;
37290;PMS5003;23175;-33.706;151.094;2022-10-24T12:34:39;5;5;
37290;PMS5003;23175;-33.706;151.094;2022-10-24T12:37:29;1;1;
37290;PMS5003;23175;-33.706;151.094;2022-10-24T12:40:45;3;3;
37290;PMS5003;23175;-33.706;151.094;2022-10-24T12:43:29;4;4;
37290;PMS5003;23175;-33.706;151.094;2022-10-24T12:46:31;6;4;
37290;PMS5003;23175;-33.706;151.094;2022-10-24T12:49:25;7;4;
37290;PMS5003;23175;-33.706;151.094;2022-10-24T12:51:56;5;3;
37290;PMS5003;23175;-33.706;151.094;2022-10-24T12:55:28;4;2;
37290;PMS5003;23175;-33.706;151.094;2022-10-24T12:58:28;4;3;
37290;PMS5003;23175;-33.706;151.094;2022-10-24T13:01:01;4;3;
37290;PMS5003;23175;-33.706;151.094;2022-10-24T13:03:48;5;4;
37290;PMS5003;23175;-33.706;151.094;2022-10-24T13:07:19;3;3;
37290;PMS5003;23175;-33.706;151.094;2022-10-24T13:10:01;3;3;
37290;PMS5003;23175;-33.706;151.094;2022-10-24T13:12:46;4;4;
37290;PMS5003;23175;-33.706;151.094;2022-10-24T13:15:39;3;3;
37290;PMS5003;23175;-33.706;151.094;2022-10-24T13:18:18;2;2;
37290;PMS5003;23175;-33.706;151.094;2022-10-24T13:21:15;3;3;
37290;PMS5003;23175;-33.706;151.094;2022-10-24T13:23:48;4;2;
37290;PMS5003;23175;-33.706;151.094;2022-10-24T13:26:32;4;4;
37290;PMS5003;23175;-33.706;151.094;2022-10-24T13:29:10;2;2;
37290;PMS5003;23175;-33.706;151.094;2022-10-24T13:31:44;4;3;
37290;PMS5003;23175;-33.706;151.094;2022-10-24T13:34:20;4;4;
37290;PMS5003;23175;-33.706;151.094;2022-10-24T13:36:58;2;2;
37290;PMS5003;23175;-33.706;151.094;2022-10-24T13:39:34;2;2;
37290;PMS5003;23175;-33.706;151.094;2022-10-24T13:42:10;3;2;
37290;PMS5003;23175;-33.706;151.094;2022-10-24T13:44:52;6;2;
37290;PMS5003;23175;-33.706;151.094;2022-10-24T13:47:28;3;2;
37290;PMS5003;23175;-33.706;151.094;2022-10-24T13:50:03;2;2;
37290;PMS5003;23175;-33.706;151.094;2022-10-24T13:52:42;3;3;
37290;PMS5003;23175;-33.706;151.094;2022-10-24T13:55:19;3;1;
37290;PMS5003;23175;-33.706;151.094;2022-10-24T13:57:53;3;2;
37290;PMS5003;23175;-33.706;151.094;2022-10-24T14:00:27;3;3;
37290;PMS5003;23175;-33.706;151.094;2022-10-24T14:02:58;2;2;
37290;PMS5003;23175;-33.706;151.094;2022-10-24T14:05:31;3;3;
37290;PMS5003;23175;-33.706;151.094;2022-10-24T14:08:05;4;3;
37290;PMS5003;23175;-33.706;151.094;2022-10-24T14:10:37;2;2;
37290;PMS5003;23175;-33.706;151.094;2022-10-24T14:13:11;4;3;
37290;PMS5003;23175;-33.706;151.094;2022-10-24T14:15:45;3;3;
37290;PMS5003;23175;-33.706;151.094;2022-10-24T14:18:18;2;2;
37290;PMS5003;23175;-33.706;151.094;2022-10-24T14:20:50;3;3;
37290;PMS5003;23175;-33.706;151.094;2022-10-24T14:23:24;6;3;
37290;PMS5003;23175;-33.706;151.094;2022-10-24T14:25:56;6;6;
37290;PMS5003;23175;-33.706;151.094;2022-10-24T14:28:29;7;4;
37290;PMS5003;23175;-33.706;151.094;2022-10-24T14:31:01;12;6;
37290;PMS5003;23175;-33.706;151.094;2022-10-24T14:33:40;7;7;
37290;PMS5003;23175;-33.706;151.094;2022-10-24T14:36:13;8;7;
37290;PMS5003;23175;-33.706;151.094;2022-10-24T14:38:44;8;8;
37290;PMS5003;23175;-33.706;151.094;2022-10-24T14:41:15;4;4;
37290;PMS5003;23175;-33.706;151.094;2022-10-24T14:43:53;11;9;
37290;PMS5003;23175;-33.706;151.094;2022-10-24T14:46:33;6;6;
37290;PMS5003;23175;-33.706;151.094;2022-10-24T14:49:21;6;6;
37290;PMS5003;23175;-33.706;151.094;2022-10-24T14:51:57;10;7;
37290;PMS5003;23175;-33.706;151.094;2022-10-24T14:54:35;7;5;
37290;PMS5003;23175;-33.706;151.094;2022-10-24T14:57:14;8;8;
37290;PMS5003;23175;-33.706;151.094;2022-10-24T14:59:48;8;6;
37290;PMS5003;23175;-33.706;151.094;2022-10-24T15:02:22;6;6;
37290;PMS5003;23175;-33.706;151.094;2022-10-24T15:05:11;5;5;
37290;PMS5003;23175;-33.706;151.094;2022-10-24T15:07:53;8;6;
37290;PMS5003;23175;-33.706;151.094;2022-10-24T15:10:32;5;3;
37290;PMS5003;23175;-33.706;151.094;2022-10-24T15:13:11;12;7;
37290;PMS5003;23175;-33.706;151.094;2022-10-24T15:15:47;5;4;
37290;PMS5003;23175;-33.706;151.094;2022-10-24T15:18:20;8;3;
37290;PMS5003;23175;-33.706;151.094;2022-10-24T15:20:52;5;5;
37290;PMS5003;23175;-33.706;151.094;2022-10-24T15:23:29;10;8;
37290;PMS5003;23175;-33.706;151.094;2022-10-24T15:26:03;10;9;
37290;PMS5003;23175;-33.706;151.094;2022-10-24T15:28:45;5;4;
37290;PMS5003;23175;-33.706;151.094;2022-10-24T15:31:17;7;6;
37290;PMS5003;23175;-33.706;151.094;2022-10-24T15:33:47;5;4;
37290;PMS5003;23175;-33.706;151.094;2022-10-24T15:36:19;7;5;
37290;PMS5003;23175;-33.706;151.094;2022-10-24T15:38:53;4;4;
37290;PMS5003;23175;-33.706;151.094;2022-10-24T15:41:24;4;4;
37290;PMS5003;23175;-33.706;151.094;2022-10-24T15:43:56;6;6;
37290;PMS5003;23175;-33.706;151.094;2022-10-24T15:46:26;5;4;
37290;PMS5003;23175;-33.706;151.094;2022-10-24T15:48:56;8;4;
37290;PMS5003;23175;-33.706;151.094;2022-10-24T15:51:26;4;4;
37290;PMS5003;23175;-33.706;151.094;2022-10-24T15:53:56;4;2;
37290;PMS5003;23175;-33.706;151.094;2022-10-24T15:56:27;5;4;
37290;PMS5003;23175;-33.706;151.094;2022-10-24T15:58:57;4;3;
37290;PMS5003;23175;-33.706;151.094;2022-10-24T16:01:28;4;4;
37290;PMS5003;23175;-33.706;151.094;2022-10-24T16:03:59;10;5;
37290;PMS5003;23175;-33.706;151.094;2022-10-24T16:06:30;9;6;
37290;PMS5003;23175;-33.706;151.094;2022-10-24T16:09:00;8;5;
37290;PMS5003;23175;-33.706;151.094;2022-10-24T16:11:31;4;4;
37290;PMS5003;23175;-33.706;151.094;2022-10-24T16:14:01;4;4;
37290;PMS5003;23175;-33.706;151.094;2022-10-24T16:16:31;11;5;
37290;PMS5003;23175;-33.706;151.094;2022-10-24T16:19:01;5;5;
37290;PMS5003;23175;-33.706;151.094;2022-10-24T16:21:32;4;4;
37290;PMS5003;23175;-33.706;151.094;2022-10-24T16:24:02;5;4;
37290;PMS5003;23175;-33.706;151.094;2022-10-24T16:26:34;2;2;
37290;PMS5003;23175;-33.706;151.094;2022-10-24T16:29:04;2;2;
37290;PMS5003;23175;-33.706;151.094;2022-10-24T16:31:34;5;4;
37290;PMS5003;23175;-33.706;151.094;2022-10-24T16:34:04;5;4;
37290;PMS5003;23175;-33.706;151.094;2022-10-24T16:36:34;5;5;
37290;PMS5003;23175;-33.706;151.094;2022-10-24T16:39:04;13;6;
37290;PMS5003;23175;-33.706;151.094;2022-10-24T16:41:34;5;5;
37290;PMS5003;23175;-33.706;151.094;2022-10-24T16:44:05;5;5;
37290;PMS5003;23175;-33.706;151.094;2022-10-24T16:46:35;4;3;
37290;PMS5003;23175;-33.706;151.094;2022-10-24T16:49:05;5;3;
37290;PMS5003;23175;-33.706;151.094;2022-10-24T16:51:35;5;3;
37290;PMS5003;23175;-33.706;151.094;2022-10-24T16:54:06;3;3;
37290;PMS5003;23175;-33.706;151.094;2022-10-24T16:56:37;6;4;
37290;PMS5003;23175;-33.706;151.094;2022-10-24T16:59:07;3;3;